Main page
METAR-TAF:

METAR-TAF

Airports :

Agra Airport

Agra, India

latitude: 27-09-27N, longitude: 077-57-39E, elevation: 168 m

METAR: missing

Time: 03:44 (22:14 UTC)

Forecast

The report was made 6 hours and 44 minutes ago, at 15:30 UTC
Forecast valid from 22 at 18 UTC to 23 at 06 UTC
Wind 2 kt from variable directions
Visibility: 0600 m
Broken clouds at a height of 9000 ft
fog
Becoming
from 23 at 05 UTC to 23 at 06 UTC
Wind 5 kt from the East
Visibility: 1500 m
mist

TAF: VIAG 221530Z 2218/2306 VRB02KT 0600 FG BKN090 BECMG 2305/2306 09005KT 1500 BR

Weather observations and forecasts of more than 4000 airports (METAR and TAF reports).

The available stations are represented by yellow and red dots on the map.

Hover mouse over dot to see the name of the station.

Then click to see weather observations and forecasts.

To change the map : click on the green buttons with a black cross to zoom in, on the green button with a dash to zoom out, or on the green arrows for adjacent maps.


METAR-TAF: